createdAt,value
2022-08-25T00:00:23.221Z,99933.56
2022-08-25T00:02:56.159Z,99943.94
2022-08-25T00:05:33.576Z,99938.75
2022-08-25T00:08:08.680Z,99942.28
2022-08-25T00:10:41.866Z,99938.13
2022-08-25T00:13:12.732Z,99941.44
2022-08-25T00:15:42.817Z,99939.56
2022-08-25T00:18:19.589Z,99934.78
2022-08-25T00:20:50.746Z,99932.72
2022-08-25T00:23:23.568Z,99932.72
2022-08-25T00:25:55.373Z,99930.22
2022-08-25T00:28:25.425Z,99920.63
2022-08-25T00:30:55.609Z,99925.81
2022-08-25T00:33:26.367Z,99924.78
2022-08-25T00:35:57.287Z,99916.03
2022-08-25T00:38:30.553Z,99923.91
2022-08-25T00:41:11.437Z,99925.56
2022-08-25T00:43:51.929Z,99913.53
2022-08-25T00:46:24.318Z,99918.91
2022-08-25T00:49:00.748Z,99919.38
2022-08-25T00:51:38.125Z,99911.69
2022-08-25T00:54:13.519Z,99921.03
2022-08-25T00:56:44.715Z,99918.34
2022-08-25T00:59:16.516Z,99921.41
2022-08-25T01:01:46.683Z,99923.91
2022-08-25T01:04:16.798Z,99912.91
2022-08-25T01:06:48.083Z,99922.00
2022-08-25T01:09:22.391Z,99920.97
2022-08-25T01:11:53.008Z,99919.94
2022-08-25T01:14:24.624Z,99921.19
2022-08-25T01:16:58.279Z,99920.13
2022-08-25T01:19:29.854Z,99929.66
2022-08-25T01:22:03.199Z,99923.03
2022-08-25T01:24:41.536Z,99925.72
2022-08-25T01:27:12.630Z,99924.25
2022-08-25T01:29:43.094Z,99931.28
2022-08-25T01:32:16.061Z,99920.72
2022-08-25T01:34:47.959Z,99915.38
2022-08-25T01:37:21.946Z,99918.06
2022-08-25T01:39:52.178Z,99918.06
2022-08-25T01:42:32.037Z,99926.47
2022-08-25T01:45:02.085Z,99914.44
2022-08-25T01:47:32.468Z,99920.63
2022-08-25T01:50:02.545Z,99917.31
2022-08-25T01:52:40.155Z,99918.53
2022-08-25T01:55:11.029Z,99920.56
2022-08-25T01:57:41.152Z,99915.75
2022-08-25T02:00:15.151Z,99915.13
2022-08-25T02:02:45.838Z,99913.41
2022-08-25T02:05:20.383Z,99909.47
2022-08-25T02:07:56.233Z,99910.75
2022-08-25T02:10:26.293Z,99908.63
2022-08-25T02:12:56.353Z,99905.94
2022-08-25T02:15:26.602Z,99906.59
2022-08-25T02:17:57.332Z,99911.13
2022-08-25T02:20:28.069Z,99911.94
2022-08-25T02:23:00.724Z,99913.16
2022-08-25T02:25:31.117Z,99907.16
2022-08-25T02:28:01.713Z,99912.69
2022-08-25T02:30:31.891Z,99902.81
2022-08-25T02:33:04.066Z,99904.00
2022-08-25T02:35:34.239Z,99906.25
2022-08-25T02:38:07.943Z,99904.19
2022-08-25T02:40:38.124Z,99900.69
2022-08-25T02:43:08.629Z,99903.56
2022-08-25T02:45:38.974Z,99906.06
2022-08-25T02:48:09.175Z,99905.41
2022-08-25T02:50:40.790Z,99901.25
2022-08-25T02:53:13.508Z,99905.59
2022-08-25T02:55:43.650Z,99906.63
2022-08-25T02:58:13.852Z,99897.97
2022-08-25T03:00:44.560Z,99900.66
2022-08-25T03:03:15.745Z,99899.81
2022-08-25T03:05:45.905Z,99892.16
2022-08-25T03:08:18.986Z,99896.69
2022-08-25T03:10:49.102Z,99901.78
2022-08-25T03:13:22.102Z,99890.22
2022-08-25T03:15:52.401Z,99896.41
2022-08-25T03:18:23.216Z,99885.69
2022-08-25T03:20:54.732Z,99895.19
2022-08-25T03:23:27.415Z,99896.41
2022-08-25T03:26:10.279Z,99894.94
2022-08-25T03:28:40.375Z,99890.03
2022-08-25T03:31:11.547Z,99898.91
2022-08-25T03:33:41.823Z,99900.75
2022-08-25T03:36:14.747Z,99904.25
2022-08-25T03:38:47.558Z,99902.59
2022-08-25T03:41:20.146Z,99901.78
2022-08-25T03:43:50.481Z,99886.91
2022-08-25T03:46:22.321Z,99888.38
2022-08-25T03:48:52.811Z,99904.06
2022-08-25T03:51:25.271Z,99886.59
2022-08-25T03:53:59.176Z,99898.16
2022-08-25T03:56:29.964Z,99897.56
2022-08-25T03:59:00.304Z,99897.56
2022-08-25T04:01:30.791Z,99896.72
2022-08-25T04:04:00.953Z,99893.66
2022-08-25T04:06:31.070Z,99895.31
2022-08-25T04:09:04.034Z,99891.63
2022-08-25T04:11:34.093Z,99894.56
2022-08-25T04:14:07.498Z,99892.72
2022-08-25T04:16:38.784Z,99891.31
2022-08-25T04:19:10.686Z,99889.53
2022-08-25T04:21:41.795Z,99897.19
2022-08-25T04:24:15.999Z,99889.78
2022-08-25T04:26:48.531Z,99891.69
2022-08-25T04:29:23.785Z,99889.28
2022-08-25T04:31:55.306Z,99885.84
2022-08-25T04:34:29.447Z,99897.03
2022-08-25T04:37:01.965Z,99884.66
2022-08-25T04:39:37.488Z,99884.28
2022-08-25T04:42:08.405Z,99878.53
2022-08-25T04:44:38.489Z,99889.66
2022-08-25T04:47:08.819Z,99884.53
2022-08-25T04:49:38.904Z,99883.13
2022-08-25T04:52:14.562Z,99882.75
2022-08-25T04:54:47.806Z,99883.78
2022-08-25T04:57:17.909Z,99886.91
2022-08-25T04:59:47.935Z,99884.09
2022-08-25T05:02:18.042Z,99883.31
2022-08-25T05:04:48.172Z,99897.44
2022-08-25T05:07:18.220Z,99898.41
2022-08-25T05:09:50.859Z,99895.78
2022-08-25T05:12:21.045Z,99887.34
2022-08-25T05:14:51.292Z,99890.31
2022-08-25T05:17:21.345Z,99892.50
2022-08-25T05:19:52.647Z,99896.06
2022-08-25T05:22:22.746Z,99900.44
2022-08-25T05:24:55.681Z,99902.31
2022-08-25T05:27:25.780Z,99906.88
2022-08-25T05:29:56.047Z,99901.09
2022-08-25T05:32:26.121Z,99909.56
2022-08-25T05:34:56.508Z,99904.41
2022-08-25T05:37:26.889Z,99901.28
2022-08-25T05:39:59.579Z,99906.00
2022-08-25T05:42:30.388Z,99919.19
2022-08-25T05:45:00.492Z,99902.75
2022-08-25T05:47:30.701Z,99905.13
2022-08-25T05:50:01.445Z,99891.41
2022-08-25T05:52:31.687Z,99901.91
2022-08-25T05:55:04.442Z,99897.03
2022-08-25T05:57:36.270Z,99898.19
2022-08-25T06:00:07.888Z,99896.75
2022-08-25T06:02:41.481Z,99890.81
2022-08-25T06:05:11.976Z,99901.09
2022-08-25T06:07:45.544Z,99888.41
2022-08-25T06:10:19.459Z,99901.91
2022-08-25T06:12:50.611Z,99886.28
2022-08-25T06:15:23.611Z,99897.94
2022-08-25T06:17:58.981Z,99900.75
2022-08-25T06:20:33.414Z,99903.69
2022-08-25T06:23:03.540Z,99895.97
2022-08-25T06:25:36.328Z,99901.72
2022-08-25T06:28:07.119Z,99900.16
2022-08-25T06:30:37.351Z,99899.41
2022-08-25T06:33:07.513Z,99898.22
2022-08-25T06:35:38.294Z,99898.53
2022-08-25T06:38:08.389Z,99892.78
2022-08-25T06:40:41.471Z,99902.81
2022-08-25T06:43:11.598Z,99897.31
2022-08-25T06:45:41.933Z,99899.66
2022-08-25T06:48:12.071Z,99897.03
2022-08-25T06:50:42.626Z,99887.75
2022-08-25T06:53:12.790Z,99897.59
2022-08-25T06:55:45.419Z,99894.78
2022-08-25T06:58:15.641Z,99894.88
2022-08-25T07:00:45.858Z,99889.84
2022-08-25T07:03:17.349Z,99901.38
2022-08-25T07:05:54.326Z,99896.00
2022-08-25T07:08:24.532Z,99885.44
2022-08-25T07:10:57.402Z,99887.75
2022-08-25T07:13:30.140Z,99892.44
2022-08-25T07:16:00.276Z,99884.31
2022-08-25T07:18:31.182Z,99885.44
2022-08-25T07:21:01.441Z,99892.84
2022-08-25T07:23:32.359Z,99886.00
2022-08-25T07:26:36.307Z,99890.38
2022-08-25T07:29:05.266Z,99886.28
2022-08-25T07:31:38.488Z,99884.00
2022-08-25T07:34:21.145Z,99889.94
2022-08-25T07:36:51.322Z,99886.47
2022-08-25T07:39:22.018Z,99881.06
2022-08-25T07:41:55.517Z,99884.75
2022-08-25T07:44:28.172Z,99874.56
2022-08-25T07:46:59.186Z,99874.81
2022-08-25T07:49:35.779Z,99871.75
2022-08-25T07:52:09.797Z,99874.91
2022-08-25T07:54:40.926Z,99873.91
2022-08-25T07:57:14.002Z,99872.78
2022-08-25T07:59:44.823Z,99875.53
2022-08-25T08:02:18.172Z,99875.81
2022-08-25T08:04:50.236Z,99869.00
2022-08-25T08:07:22.810Z,99863.88
2022-08-25T08:10:18.964Z,99863.56
2022-08-25T08:12:46.214Z,99857.25
2022-08-25T08:15:16.516Z,99863.88
2022-08-25T08:17:46.737Z,99871.88
2022-08-25T08:20:23.382Z,99860.59
2022-08-25T08:22:53.856Z,99859.78
2022-08-25T08:25:26.628Z,99854.09
2022-08-25T08:28:00.824Z,99849.78
2022-08-25T08:30:31.397Z,99854.94
2022-08-25T08:33:11.293Z,99859.63
2022-08-25T08:35:43.173Z,99849.44
2022-08-25T08:38:18.424Z,99846.47
2022-08-25T08:41:15.964Z,99845.88
2022-08-25T08:43:51.876Z,99843.59
2022-08-25T08:46:26.129Z,99845.25
2022-08-25T08:49:05.006Z,99842.09
2022-08-25T08:51:41.066Z,99837.91
2022-08-25T08:54:18.675Z,99831.69
2022-08-25T08:56:53.510Z,99831.56
2022-08-25T08:59:30.915Z,99831.66
2022-08-25T09:02:03.183Z,99835.09
2022-08-25T09:04:38.416Z,99832.91
2022-08-25T09:07:16.346Z,99838.94
2022-08-25T09:09:48.253Z,99837.16
2022-08-25T09:12:33.634Z,99827.56
2022-08-25T09:15:17.644Z,99824.59
2022-08-25T09:18:08.694Z,99821.47
2022-08-25T09:20:57.840Z,99822.81
2022-08-25T09:23:42.280Z,99825.25
2022-08-25T09:26:27.814Z,99816.44
2022-08-25T09:29:06.366Z,99817.03
2022-08-25T09:31:51.625Z,99813.69
2022-08-25T09:34:25.027Z,99814.31
2022-08-25T09:37:05.969Z,99802.03
2022-08-25T09:39:39.194Z,99805.94
2022-08-25T09:42:09.708Z,99806.50
2022-08-25T09:44:44.612Z,99799.00
2022-08-25T09:53:59.326Z,99788.34
2022-08-25T09:56:31.971Z,99786.03
2022-08-25T09:59:34.102Z,99776.47
2022-08-25T10:02:08.393Z,99780.03
2022-08-25T10:04:41.324Z,99774.91
2022-08-25T10:07:24.186Z,99764.25
2022-08-25T10:09:59.982Z,99765.34
2022-08-25T10:12:36.911Z,99769.59
2022-08-25T10:15:29.198Z,99752.19
2022-08-25T10:18:26.177Z,99755.81
2022-08-25T10:21:09.575Z,99751.13
2022-08-25T10:23:44.997Z,99750.22
2022-08-25T10:26:34.899Z,99749.63
2022-08-25T10:29:19.063Z,99739.53
2022-08-25T10:38:42.909Z,99739.09
2022-08-25T10:41:33.055Z,99729.38
2022-08-25T10:44:28.557Z,99723.34
2022-08-25T10:47:10.119Z,99720.16
2022-08-25T10:49:49.938Z,99714.31
2022-08-25T10:52:26.938Z,99712.22
2022-08-25T10:55:10.306Z,99706.47
2022-08-25T10:57:50.782Z,99695.69
2022-08-25T11:00:31.698Z,99695.97
2022-08-25T11:03:16.323Z,99693.44
2022-08-25T11:05:54.016Z,99690.44
2022-08-25T11:08:35.625Z,99695.06
2022-08-25T11:11:12.551Z,99682.97
2022-08-25T11:13:50.402Z,99684.09
2022-08-25T11:16:32.466Z,99678.97
2022-08-25T11:19:08.654Z,99674.94
2022-08-25T11:21:47.593Z,99675.19
2022-08-25T11:24:37.913Z,99666.00
2022-08-25T11:27:13.746Z,99664.75
2022-08-25T11:30:06.094Z,99662.75
2022-08-25T11:32:37.996Z,99653.38
2022-08-25T11:35:12.284Z,99657.25
2022-08-25T11:37:56.673Z,99643.38
2022-08-25T11:40:41.500Z,99651.69
2022-08-25T11:43:29.070Z,99649.84
2022-08-25T11:46:22.687Z,99638.88
2022-08-25T11:49:10.888Z,99642.44
2022-08-25T11:51:44.706Z,99631.53
2022-08-25T11:54:22.505Z,99621.66
2022-08-25T11:56:59.779Z,99613.88
2022-08-25T12:00:05.573Z,99612.47
2022-08-25T12:02:44.056Z,99603.06
2022-08-25T12:05:50.042Z,99599.19
2022-08-25T12:08:57.538Z,99616.47
2022-08-25T12:11:46.856Z,99604.72
2022-08-25T12:14:41.213Z,99609.56
2022-08-25T12:17:24.603Z,99601.28
2022-08-25T12:20:01.474Z,99608.91
2022-08-25T12:22:57.034Z,99608.22
2022-08-25T12:25:43.468Z,99593.31
2022-08-25T12:28:29.561Z,99595.31
2022-08-25T12:31:14.745Z,99588.06
2022-08-25T12:33:55.642Z,99589.78
2022-08-25T12:36:34.592Z,99587.44
2022-08-25T12:39:19.862Z,99592.09
2022-08-25T12:41:59.244Z,99586.72
2022-08-25T12:44:41.161Z,99593.63
2022-08-25T12:47:31.976Z,99590.44
2022-08-25T12:50:32.665Z,99592.50
2022-08-25T12:53:14.414Z,99578.00
2022-08-25T12:55:54.700Z,99579.53
2022-08-25T12:58:38.626Z,99585.72
2022-08-25T13:01:35.498Z,99596.00
2022-08-25T13:04:34.943Z,99584.56
2022-08-25T13:07:26.498Z,99579.94
2022-08-25T13:10:20.859Z,99581.56
2022-08-25T13:12:57.762Z,99577.78
2022-08-25T13:15:45.233Z,99579.78
2022-08-25T13:18:23.164Z,99568.38
2022-08-25T13:23:30.223Z,99564.19
2022-08-25T13:26:03.142Z,99558.81
2022-08-25T13:28:35.322Z,99565.44
2022-08-25T13:31:09.939Z,99553.53
2022-08-25T13:33:40.821Z,99561.16
2022-08-25T13:36:32.598Z,99560.47
2022-08-25T13:39:15.315Z,99549.69
2022-08-25T13:41:55.579Z,99551.97
2022-08-25T13:44:28.801Z,99546.25
2022-08-25T13:47:09.983Z,99551.22
2022-08-25T13:49:41.834Z,99564.19
2022-08-25T13:52:30.168Z,99555.66
2022-08-25T13:55:04.646Z,99565.91
2022-08-25T13:57:37.671Z,99566.81
2022-08-25T14:00:12.663Z,99567.81
2022-08-25T14:02:45.484Z,99559.63
2022-08-25T14:05:36.010Z,99565.59
2022-08-25T14:08:25.280Z,99555.09
2022-08-25T14:11:14.698Z,99562.78
2022-08-25T14:13:49.358Z,99558.31
2022-08-25T14:16:25.457Z,99557.31
2022-08-25T14:18:58.832Z,99561.25
2022-08-25T14:21:32.961Z,99562.72
2022-08-25T14:24:06.830Z,99560.63
2022-08-25T14:26:54.472Z,99553.88
2022-08-25T14:29:27.827Z,99560.63
2022-08-25T14:32:00.035Z,99545.38
2022-08-25T14:34:36.811Z,99542.41
2022-08-25T14:37:15.553Z,99543.63
2022-08-25T14:39:46.202Z,99551.09
2022-08-25T14:42:17.193Z,99540.56
2022-08-25T14:44:50.865Z,99539.66
2022-08-25T14:47:22.231Z,99538.00
2022-08-25T14:49:54.402Z,99540.00
2022-08-25T14:52:29.949Z,99534.09
2022-08-25T14:55:00.290Z,99546.69
2022-08-25T14:57:38.489Z,99548.56
2022-08-25T15:00:13.850Z,99548.13
2022-08-25T15:02:49.968Z,99545.63
2022-08-25T15:05:28.467Z,99543.22
2022-08-25T15:08:12.431Z,99540.47
2022-08-25T15:10:43.550Z,99546.97
2022-08-25T15:13:14.308Z,99542.09
2022-08-25T15:15:52.762Z,99538.31
2022-08-25T15:18:24.255Z,99541.59
2022-08-25T15:20:57.695Z,99545.69
2022-08-25T15:23:27.954Z,99541.88
2022-08-25T15:25:59.384Z,99532.41
2022-08-25T15:28:33.731Z,99539.56
2022-08-25T15:31:06.735Z,99540.34
2022-08-25T15:33:38.639Z,99542.25
2022-08-25T15:36:11.393Z,99540.50
2022-08-25T15:38:46.872Z,99539.00
2022-08-25T15:41:17.536Z,99539.19
2022-08-25T15:43:47.710Z,99539.97
2022-08-25T15:46:27.992Z,99527.25
2022-08-25T15:48:59.682Z,99535.34
2022-08-25T15:51:30.567Z,99527.28
2022-08-25T15:54:00.931Z,99522.03
2022-08-25T15:56:34.091Z,99531.06
2022-08-25T15:59:08.686Z,99528.72
2022-08-25T16:01:41.562Z,99520.25
2022-08-25T16:04:11.916Z,99523.50
2022-08-25T16:06:42.272Z,99521.91
2022-08-25T16:09:12.495Z,99524.19
2022-08-25T16:11:43.590Z,99522.28
2022-08-25T16:14:15.222Z,99520.38
2022-08-25T16:16:48.680Z,99524.16
2022-08-25T16:19:18.845Z,99527.47
2022-08-25T16:21:49.114Z,99526.09
2022-08-25T16:24:20.396Z,99522.81
2022-08-25T16:26:51.751Z,99524.19
2022-08-25T16:29:22.856Z,99525.03
2022-08-25T16:31:55.660Z,99522.91
2022-08-25T16:34:30.803Z,99527.78
2022-08-25T16:37:02.064Z,99521.53
2022-08-25T16:39:32.364Z,99524.25
2022-08-25T16:42:02.867Z,99527.84
2022-08-25T16:44:34.500Z,99521.31
2022-08-25T16:47:09.573Z,99533.59
2022-08-25T16:49:44.456Z,99531.16
2022-08-25T16:52:28.544Z,99535.50
2022-08-25T16:55:11.889Z,99530.59
2022-08-25T16:57:43.427Z,99534.41
2022-08-25T17:00:17.661Z,99534.44
2022-08-25T17:02:51.727Z,99533.88
2022-08-25T17:05:22.153Z,99529.75
2022-08-25T17:08:05.031Z,99534.63
2022-08-25T17:10:38.765Z,99538.97
2022-08-25T17:13:09.175Z,99541.09
2022-08-25T17:15:43.412Z,99537.56
2022-08-25T17:18:16.602Z,99538.00
2022-08-25T17:20:48.768Z,99537.44
2022-08-25T17:23:21.455Z,99528.91
2022-08-25T17:25:53.062Z,99542.94
2022-08-25T17:28:23.701Z,99546.38
2022-08-25T17:30:55.566Z,99546.81
2022-08-25T17:33:29.101Z,99557.25
2022-08-25T17:36:00.613Z,99552.97
2022-08-25T17:38:33.886Z,99554.19
2022-08-25T17:41:06.978Z,99552.94
2022-08-25T17:43:40.143Z,99558.44
2022-08-25T17:46:11.832Z,99549.88
2022-08-25T17:48:45.695Z,99554.56
2022-08-25T17:51:18.541Z,99557.97
2022-08-25T17:53:48.799Z,99553.63
2022-08-25T17:56:22.403Z,99558.94
2022-08-25T17:58:55.242Z,99568.81
2022-08-25T18:01:27.841Z,99556.69
2022-08-25T18:04:01.852Z,99567.44
2022-08-25T18:06:32.641Z,99567.03
2022-08-25T18:09:06.296Z,99569.91
2022-08-25T18:11:36.497Z,99563.00
2022-08-25T18:14:06.803Z,99561.25
2022-08-25T18:16:42.138Z,99566.59
2022-08-25T18:19:16.847Z,99573.19
2022-08-25T18:21:47.269Z,99573.00
2022-08-25T18:24:17.624Z,99574.94
2022-08-25T18:26:49.510Z,99572.38
2022-08-25T18:29:20.295Z,99574.97
2022-08-25T18:31:53.663Z,99576.75
2022-08-25T18:34:30.430Z,99587.03
2022-08-25T18:37:21.690Z,99582.09
2022-08-25T18:40:06.809Z,99581.50
2022-08-25T18:42:40.546Z,99588.69
2022-08-25T18:45:12.798Z,99588.41
2022-08-25T18:47:43.219Z,99588.50
2022-08-25T18:50:16.098Z,99593.59
2022-08-25T18:52:46.301Z,99583.16
2022-08-25T18:55:16.612Z,99586.59
2022-08-25T18:57:47.584Z,99581.78
2022-08-25T19:00:23.710Z,99586.78
2022-08-25T19:02:57.509Z,99587.38
2022-08-25T19:05:34.633Z,99588.56
2022-08-25T19:08:08.874Z,99583.06
2022-08-25T19:10:40.401Z,99580.69
2022-08-25T19:13:12.591Z,99578.91
2022-08-25T19:15:44.191Z,99571.50
2022-08-25T19:18:16.043Z,99571.91
2022-08-25T19:20:50.303Z,99577.19
2022-08-25T19:23:22.772Z,99576.47
2022-08-25T19:25:53.017Z,99579.28
2022-08-25T19:28:23.342Z,99577.31
2022-08-25T19:30:54.325Z,99586.97
2022-08-25T19:33:42.699Z,99577.66
2022-08-25T19:36:19.019Z,99578.84
2022-08-25T19:38:54.054Z,99575.13
2022-08-25T19:41:25.047Z,99576.69
2022-08-25T19:43:57.444Z,99582.22
2022-08-25T19:46:32.728Z,99568.19
2022-08-25T19:49:08.930Z,99581.94
2022-08-25T19:51:45.455Z,99578.53
2022-08-25T19:54:17.327Z,99577.13
2022-08-25T19:56:54.305Z,99578.28
2022-08-25T19:59:40.689Z,99574.84
2022-08-25T20:02:15.968Z,99577.66
2022-08-25T20:04:49.217Z,99578.72
2022-08-25T20:07:25.456Z,99575.28
2022-08-25T20:09:57.680Z,99576.97
2022-08-25T20:12:28.986Z,99570.25
2022-08-25T20:14:59.288Z,99574.03
2022-08-25T20:17:30.275Z,99579.06
2022-08-25T20:20:04.547Z,99577.72
2022-08-25T20:22:38.518Z,99568.19
2022-08-25T20:25:13.437Z,99580.28
2022-08-25T20:27:46.529Z,99570.75
2022-08-25T20:30:22.210Z,99576.47
2022-08-25T20:32:52.757Z,99571.75
2022-08-25T20:35:26.327Z,99563.34
2022-08-25T20:38:01.150Z,99570.19
2022-08-25T20:40:33.678Z,99566.28
2022-08-25T20:43:05.043Z,99561.94
2022-08-25T20:45:43.763Z,99562.63
2022-08-25T20:48:14.097Z,99572.34
2022-08-25T20:50:44.395Z,99573.88
2022-08-25T20:53:17.986Z,99570.53
2022-08-25T20:55:48.562Z,99575.56
2022-08-25T20:58:19.379Z,99571.44
2022-08-25T21:00:49.945Z,99568.38
2022-08-25T21:03:20.209Z,99570.06
2022-08-25T21:05:54.150Z,99571.34
2022-08-25T21:08:28.044Z,99572.44
2022-08-25T21:10:58.000Z,99568.06
2022-08-25T21:13:28.705Z,99573.31
2022-08-25T21:16:05.606Z,99569.78
2022-08-25T21:18:36.025Z,99571.06
2022-08-25T21:21:12.359Z,99557.84
2022-08-25T21:23:48.225Z,99569.03
2022-08-25T21:26:21.224Z,99568.44
2022-08-25T21:28:51.463Z,99561.59
2022-08-25T21:31:23.668Z,99569.31
2022-08-25T21:33:56.528Z,99566.00
2022-08-25T21:36:28.921Z,99560.03
2022-08-25T21:39:03.582Z,99565.66
2022-08-25T21:41:36.808Z,99565.06
2022-08-25T21:44:07.334Z,99560.09
2022-08-25T21:46:39.255Z,99559.72
2022-08-25T21:49:10.969Z,99561.19
2022-08-25T21:51:46.887Z,99563.28
2022-08-25T21:54:20.848Z,99564.78
2022-08-25T21:56:58.601Z,99564.41
2022-08-25T21:59:31.846Z,99561.31
2022-08-25T22:02:04.460Z,99564.81
2022-08-25T22:04:35.710Z,99566.09
2022-08-25T22:07:08.376Z,99568.78
2022-08-25T22:09:41.822Z,99561.97
2022-08-25T22:12:13.316Z,99566.53
2022-08-25T22:14:45.802Z,99563.81
2022-08-25T22:17:17.284Z,99565.69
2022-08-25T22:19:54.459Z,99564.03
2022-08-25T22:22:25.220Z,99564.03
2022-08-25T22:24:58.832Z,99561.78
2022-08-25T22:27:29.276Z,99560.75
2022-08-25T22:29:59.632Z,99551.44
2022-08-25T22:32:30.610Z,99551.66
2022-08-25T22:35:00.818Z,99546.94
2022-08-25T22:37:31.183Z,99544.31
2022-08-25T22:40:07.720Z,99545.34
2022-08-25T22:42:38.062Z,99533.97
2022-08-25T22:45:09.077Z,99532.97
2022-08-25T22:47:39.876Z,99539.00
2022-08-25T22:50:12.605Z,99545.50
2022-08-25T22:52:42.821Z,99551.81
2022-08-25T22:55:16.667Z,99556.63
2022-08-25T22:57:47.528Z,99556.09
2022-08-25T23:00:19.344Z,99559.66
2022-08-25T23:02:53.301Z,99557.00
2022-08-25T23:05:23.923Z,99549.78
2022-08-25T23:07:54.150Z,99546.47
2022-08-25T23:10:27.467Z,99548.97
2022-08-25T23:12:57.676Z,99547.28
2022-08-25T23:15:27.994Z,99543.97
2022-08-25T23:17:58.279Z,99540.69
2022-08-25T23:20:45.192Z,99547.09
2022-08-25T23:23:16.701Z,99545.44
2022-08-25T23:25:49.459Z,99552.28
2022-08-25T23:28:20.167Z,99552.94
2022-08-25T23:30:56.968Z,99541.16
2022-08-25T23:33:29.883Z,99544.91
2022-08-25T23:36:04.309Z,99543.69
2022-08-25T23:38:34.498Z,99542.44
2022-08-25T23:41:11.056Z,99539.16
2022-08-25T23:43:41.256Z,99543.28
2022-08-25T23:46:11.850Z,99541.84
2022-08-25T23:48:42.590Z,99534.81
2022-08-25T23:51:13.236Z,99536.28
2022-08-25T23:53:43.393Z,99537.53
2022-08-25T23:56:16.246Z,99547.44
2022-08-25T23:58:46.421Z,99541.69
